createdAt,value
2023-03-02T06:16:02.950Z,0.30
2023-03-02T06:29:41.386Z,0.00
2023-03-02T06:33:51.669Z,0.10
2023-03-02T06:38:02.550Z,0.00
2023-03-02T06:42:12.288Z,-0.20
2023-03-02T06:46:23.738Z,-0.20
2023-03-02T06:50:33.937Z,-0.20
2023-03-02T06:54:43.470Z,-0.20
2023-03-02T06:58:52.809Z,-0.20
2023-03-02T07:03:03.668Z,-0.20
2023-03-02T07:07:12.946Z,-0.10
2023-03-02T07:11:22.328Z,0.00
2023-03-02T07:15:31.366Z,0.10
2023-03-02T07:19:42.125Z,0.10
2023-03-02T07:23:51.528Z,0.10
2023-03-02T07:28:01.361Z,0.10
2023-03-02T07:32:12.459Z,0.10
2023-03-02T07:36:23.329Z,0.20
2023-03-02T07:40:32.752Z,0.20
2023-03-02T07:44:42.163Z,0.30
2023-03-02T07:48:54.459Z,0.40
2023-03-02T07:53:06.225Z,0.60
2023-03-02T07:57:23.885Z,0.70
2023-03-02T08:01:35.410Z,0.80
2023-03-02T08:05:46.762Z,1.20
2023-03-02T08:09:58.425Z,1.60
2023-03-02T08:14:08.916Z,2.00
2023-03-02T08:18:19.647Z,2.50
2023-03-02T08:22:29.060Z,2.70
2023-03-02T08:27:19.914Z,3.30
2023-03-02T08:46:30.893Z,4.20
2023-03-02T08:50:43.796Z,4.40
2023-03-02T09:29:05.689Z,6.20
2023-03-02T09:33:17.008Z,6.40
2023-03-02T09:37:26.731Z,6.30
2023-03-02T09:42:01.387Z,6.50
2023-03-02T09:46:26.275Z,6.70
2023-03-02T09:50:48.616Z,7.00
2023-03-02T09:55:01.116Z,7.10
2023-03-02T09:59:24.470Z,7.20
2023-03-02T10:03:42.130Z,7.50
2023-03-02T10:07:54.088Z,7.80
2023-03-02T11:07:39.486Z,8.40
2023-03-02T11:13:18.476Z,8.80
2023-03-02T11:40:19.045Z,9.80
2023-03-02T11:49:44.014Z,10.00
2023-03-02T11:54:01.305Z,9.90
2023-03-02T12:42:48.932Z,10.70
2023-03-02T12:47:17.681Z,11.00
2023-03-02T12:52:03.987Z,10.60
2023-03-02T12:56:37.535Z,10.70
2023-03-02T13:01:11.050Z,11.30
2023-03-02T13:33:33.790Z,9.90
2023-03-02T13:52:54.707Z,9.90
2023-03-02T13:57:26.324Z,9.90
2023-03-02T14:06:41.364Z,9.40
2023-03-02T14:10:57.726Z,9.50
2023-03-02T14:20:03.706Z,10.10
2023-03-02T14:24:13.306Z,9.90
2023-03-02T14:28:30.418Z,9.80
2023-03-02T14:32:41.165Z,9.70
2023-03-02T14:41:38.479Z,9.40
2023-03-02T14:46:06.403Z,9.40
2023-03-02T14:50:19.026Z,9.50
2023-03-02T14:54:42.105Z,9.60
2023-03-02T14:58:52.554Z,9.60
2023-03-02T15:03:03.459Z,9.60
2023-03-02T15:07:18.521Z,9.50
2023-03-02T15:11:29.184Z,9.60
2023-03-02T15:15:40.188Z,9.60
2023-03-02T15:19:56.951Z,9.60
2023-03-02T15:24:11.126Z,9.70
2023-03-02T15:28:21.068Z,9.50
2023-03-02T15:32:39.333Z,9.40
2023-03-02T15:36:49.833Z,9.40
2023-03-02T15:41:01.118Z,9.20
2023-03-02T15:45:12.567Z,9.10
2023-03-02T15:49:33.010Z,9.20
2023-03-02T15:53:42.496Z,9.30
2023-03-02T15:57:52.928Z,9.40
2023-03-02T16:02:02.621Z,9.30
2023-03-02T16:06:11.945Z,9.10
2023-03-02T16:10:21.722Z,8.80
2023-03-02T16:14:32.291Z,8.80
2023-03-02T16:18:41.455Z,8.70
2023-03-02T16:22:50.407Z,8.80
2023-03-02T16:26:59.752Z,8.90
2023-03-02T16:31:16.072Z,8.80
2023-03-02T16:35:30.805Z,8.80
2023-03-02T16:39:41.674Z,8.90
2023-03-02T16:48:20.092Z,8.90
2023-03-02T16:52:30.895Z,9.00
2023-03-02T16:56:49.911Z,8.90
2023-03-02T17:01:01.317Z,8.70
2023-03-02T17:05:13.651Z,8.60
2023-03-02T17:09:24.093Z,8.50
2023-03-02T17:13:34.098Z,8.50
2023-03-02T17:17:43.577Z,8.40
2023-03-02T17:21:54.115Z,8.30
2023-03-02T17:26:05.111Z,8.30
2023-03-02T17:30:16.012Z,8.20
2023-03-02T17:34:31.948Z,8.20
2023-03-02T17:38:45.156Z,8.10
2023-03-02T17:42:57.689Z,8.10
2023-03-02T17:47:08.529Z,8.00
2023-03-02T17:51:19.895Z,7.90
2023-03-02T17:55:31.193Z,7.90
2023-03-02T17:59:40.630Z,7.90
2023-03-02T18:03:50.156Z,7.90
2023-03-02T18:08:01.793Z,7.80
2023-03-02T18:12:12.945Z,7.80
2023-03-02T18:16:22.372Z,7.80
2023-03-02T18:20:32.632Z,7.70
2023-03-02T18:25:11.514Z,7.70
2023-03-02T18:29:23.525Z,7.70
2023-03-02T18:33:33.624Z,7.70
2023-03-02T18:37:44.453Z,7.60
2023-03-02T18:41:53.944Z,7.70
2023-03-02T18:51:00.950Z,7.50
2023-03-02T18:55:21.187Z,7.50
2023-03-02T18:59:30.731Z,7.40
2023-03-02T19:03:40.385Z,7.20
2023-03-02T19:08:08.605Z,7.20
2023-03-02T19:12:20.308Z,7.10
2023-03-02T19:16:30.365Z,7.20
2023-03-02T19:20:43.630Z,7.20
2023-03-02T19:25:04.269Z,7.10
2023-03-02T19:29:15.078Z,7.00
2023-03-02T19:33:25.153Z,6.90
2023-03-02T19:37:41.028Z,6.80
2023-03-02T19:46:25.692Z,6.80
2023-03-02T19:50:35.353Z,6.70
2023-03-02T20:00:24.256Z,6.70
2023-03-02T20:24:32.046Z,6.40
2023-03-02T20:28:42.664Z,6.40
2023-03-02T20:32:56.587Z,6.40
2023-03-02T20:37:10.902Z,6.40
2023-03-02T20:41:27.603Z,6.40
2023-03-02T20:55:03.244Z,6.30
2023-03-02T20:59:15.220Z,6.20
2023-03-02T21:03:24.565Z,6.10
2023-03-02T21:07:36.182Z,6.10
2023-03-02T21:11:45.839Z,6.20
2023-03-02T21:15:57.104Z,6.20
2023-03-02T21:20:06.959Z,6.10
2023-03-02T21:24:18.817Z,6.10
2023-03-02T21:28:28.085Z,6.10
2023-03-02T21:32:38.647Z,6.10
2023-03-02T21:36:48.345Z,6.10
2023-03-02T21:40:58.485Z,6.10
2023-03-02T21:45:09.266Z,6.00
2023-03-02T21:49:21.445Z,6.00
2023-03-02T21:53:30.782Z,6.00
2023-03-02T21:57:39.885Z,6.00
2023-03-02T22:01:49.219Z,5.90
2023-03-02T22:05:59.783Z,5.80
2023-03-02T22:10:13.518Z,5.80
2023-03-02T22:14:22.884Z,5.80
2023-03-02T22:18:33.048Z,5.80
2023-03-02T22:22:43.648Z,5.80
2023-03-02T22:27:01.299Z,5.70
2023-03-02T22:31:19.390Z,5.70
2023-03-02T22:35:29.588Z,5.70
2023-03-02T22:39:42.234Z,5.70
2023-03-02T22:43:53.431Z,5.70
2023-03-02T22:48:03.870Z,5.70
2023-03-02T22:52:19.132Z,5.70
2023-03-02T22:56:35.915Z,5.70
2023-03-02T23:00:44.945Z,5.80
2023-03-02T23:04:53.990Z,5.70
2023-03-02T23:09:05.912Z,5.80
2023-03-02T23:13:19.190Z,5.80
2023-03-02T23:17:35.932Z,5.90
2023-03-02T23:21:49.175Z,5.80
2023-03-02T23:25:58.185Z,5.90
2023-03-02T23:30:10.160Z,6.00
2023-03-02T23:34:19.301Z,6.00
2023-03-02T23:38:28.330Z,6.00
2023-03-02T23:42:37.348Z,6.00
2023-03-02T23:46:47.918Z,6.00
2023-03-02T23:50:57.209Z,6.10
2023-03-02T23:55:06.883Z,6.10
2023-03-02T23:59:16.104Z,6.10
